createdAt,value
2017-10-26T00:00:59.477Z,10.73
2017-10-26T00:01:59.585Z,10.68
2017-10-26T00:02:59.570Z,10.73
2017-10-26T00:03:59.615Z,10.71
2017-10-26T00:04:59.664Z,10.76
2017-10-26T00:05:59.711Z,10.68
2017-10-26T00:06:59.818Z,10.74
2017-10-26T00:07:59.807Z,10.74
2017-10-26T00:08:59.854Z,10.76
2017-10-26T00:09:59.904Z,10.66
2017-10-26T00:10:59.945Z,10.66
2017-10-26T00:12:00.065Z,10.59
2017-10-26T00:13:00.037Z,10.63
2017-10-26T00:14:00.085Z,10.59
2017-10-26T00:15:00.136Z,10.58
2017-10-26T00:16:00.177Z,10.63
2017-10-26T00:17:00.316Z,10.63
2017-10-26T00:18:00.268Z,10.65
2017-10-26T00:19:00.317Z,10.60
2017-10-26T00:20:00.365Z,10.65
2017-10-26T00:21:00.414Z,10.60
2017-10-26T00:22:00.595Z,10.52
2017-10-26T00:23:00.504Z,10.51
2017-10-26T00:24:00.555Z,10.60
2017-10-26T00:25:00.598Z,10.56
2017-10-26T00:26:00.650Z,10.55
2017-10-26T00:27:00.771Z,10.55
2017-10-26T00:28:00.735Z,10.55
2017-10-26T00:29:00.785Z,10.55
2017-10-26T00:30:00.835Z,10.46
2017-10-26T00:31:00.878Z,10.52
2017-10-26T00:32:00.986Z,10.53
2017-10-26T00:33:01.033Z,10.46
2017-10-26T00:34:01.015Z,10.37
2017-10-26T00:35:01.064Z,10.46
2017-10-26T00:36:01.114Z,10.37
2017-10-26T00:37:01.222Z,10.37
2017-10-26T00:38:01.265Z,10.33
2017-10-26T00:39:01.254Z,10.42
2017-10-26T00:40:01.304Z,10.42
2017-10-26T00:41:01.345Z,10.39
2017-10-26T00:42:01.394Z,10.40
2017-10-26T00:43:01.502Z,10.37
2017-10-26T00:44:01.485Z,10.34
2017-10-26T00:45:01.531Z,10.28
2017-10-26T00:46:01.576Z,10.22
2017-10-26T00:47:01.628Z,10.32
2017-10-26T00:48:01.732Z,10.21
2017-10-26T00:49:01.722Z,10.18
2017-10-26T00:50:01.765Z,10.14
2017-10-26T00:51:01.809Z,10.14
2017-10-26T00:52:01.857Z,10.10
2017-10-26T00:53:01.977Z,10.04
2017-10-26T00:54:01.949Z,10.00
2017-10-26T00:55:01.997Z,10.06
2017-10-26T00:56:02.040Z,10.03
2017-10-26T00:57:02.089Z,9.99
2017-10-26T00:58:02.197Z,10.07
2017-10-26T00:59:02.180Z,10.06
2017-10-26T01:00:02.229Z,9.99
2017-10-26T01:01:02.276Z,9.96
2017-10-26T01:02:02.322Z,9.91
2017-10-26T01:03:02.431Z,9.94
2017-10-26T01:04:02.416Z,9.97
2017-10-26T01:05:02.463Z,9.89
2017-10-26T01:06:02.510Z,9.86
2017-10-26T01:07:02.554Z,9.81
2017-10-26T01:08:02.685Z,9.85
2017-10-26T01:09:02.652Z,9.86
2017-10-26T01:10:02.694Z,9.83
2017-10-26T01:11:02.743Z,9.88
2017-10-26T01:12:02.788Z,9.85
2017-10-26T01:13:02.908Z,9.81
2017-10-26T01:14:02.880Z,9.85
2017-10-26T01:15:02.927Z,9.79
2017-10-26T01:16:02.974Z,9.78
2017-10-26T01:17:03.020Z,9.75
2017-10-26T01:18:03.141Z,9.71
2017-10-26T01:19:03.120Z,9.70
2017-10-26T01:20:03.158Z,9.64
2017-10-26T01:21:03.204Z,9.58
2017-10-26T01:22:03.251Z,9.49
2017-10-26T01:23:03.368Z,9.49
2017-10-26T01:24:03.405Z,9.56
2017-10-26T01:25:03.402Z,9.48
2017-10-26T01:26:03.435Z,9.56
2017-10-26T01:27:03.482Z,9.46
2017-10-26T01:28:03.532Z,9.57
2017-10-26T01:29:03.636Z,9.53
2017-10-26T01:30:03.625Z,9.56
2017-10-26T01:31:03.732Z,9.58
2017-10-26T01:32:03.715Z,9.58
2017-10-26T01:33:03.760Z,9.57
2017-10-26T01:34:03.871Z,9.56
2017-10-26T01:35:03.852Z,9.61
2017-10-26T01:36:03.900Z,9.63
2017-10-26T01:37:03.945Z,9.52
2017-10-26T01:38:03.987Z,9.49
2017-10-26T01:39:04.103Z,9.49
2017-10-26T01:40:04.088Z,9.52
2017-10-26T01:41:04.127Z,9.57
2017-10-26T01:42:04.172Z,9.50
2017-10-26T01:43:04.221Z,9.53
2017-10-26T01:44:04.332Z,9.57
2017-10-26T01:45:04.315Z,9.53
2017-10-26T01:46:04.358Z,9.49
2017-10-26T01:47:04.405Z,9.50
2017-10-26T01:48:04.452Z,9.48
2017-10-26T01:49:04.560Z,9.49
2017-10-26T01:50:04.547Z,9.46
2017-10-26T01:51:04.592Z,9.49
2017-10-26T01:52:04.638Z,9.50
2017-10-26T01:53:04.682Z,9.48
2017-10-26T01:54:04.790Z,9.39
2017-10-26T01:55:04.781Z,9.40
2017-10-26T01:56:04.823Z,9.31
2017-10-26T01:57:04.869Z,9.38
2017-10-26T01:58:04.913Z,9.34
2017-10-26T01:59:05.023Z,9.34
2017-10-26T02:00:05.010Z,9.18
2017-10-26T02:01:05.054Z,9.24
2017-10-26T02:02:05.100Z,9.16
2017-10-26T02:03:05.144Z,9.21
2017-10-26T02:04:05.273Z,9.18
2017-10-26T02:05:05.240Z,9.23
2017-10-26T02:06:05.282Z,9.23
2017-10-26T02:07:05.328Z,9.24
2017-10-26T02:08:05.375Z,9.27
2017-10-26T02:09:05.507Z,9.34
2017-10-26T02:10:05.466Z,9.34
2017-10-26T02:11:05.512Z,9.35
2017-10-26T02:12:05.560Z,9.34
2017-10-26T02:13:05.613Z,9.35
2017-10-26T02:14:05.724Z,9.38
2017-10-26T02:15:05.694Z,9.35
2017-10-26T02:16:05.744Z,9.32
2017-10-26T02:17:05.789Z,9.38
2017-10-26T02:18:05.837Z,9.28
2017-10-26T02:19:06.036Z,9.34
2017-10-26T02:20:05.930Z,9.34
2017-10-26T02:21:05.974Z,9.35
2017-10-26T02:22:06.021Z,9.34
2017-10-26T02:23:06.065Z,9.42
2017-10-26T02:24:06.173Z,9.35
2017-10-26T02:25:06.216Z,9.40
2017-10-26T02:26:06.205Z,9.28
2017-10-26T02:27:06.248Z,9.24
2017-10-26T02:28:08.317Z,9.27
2017-10-26T02:29:06.348Z,9.34
2017-10-26T02:30:06.448Z,9.35
2017-10-26T02:31:06.433Z,9.31
2017-10-26T02:32:06.479Z,9.43
2017-10-26T02:33:06.527Z,9.42
2017-10-26T02:34:06.571Z,9.49
2017-10-26T02:35:06.678Z,9.49
2017-10-26T02:36:06.667Z,9.49
2017-10-26T02:37:06.706Z,9.42
2017-10-26T02:38:06.757Z,9.48
2017-10-26T02:39:06.809Z,9.49
2017-10-26T02:40:06.910Z,9.48
2017-10-26T02:41:06.893Z,9.43
2017-10-26T02:42:06.941Z,9.40
2017-10-26T02:43:06.983Z,9.38
2017-10-26T02:44:07.030Z,9.40
2017-10-26T02:45:07.159Z,9.28
2017-10-26T02:46:07.136Z,9.39
2017-10-26T02:47:07.167Z,9.38
2017-10-26T02:48:07.216Z,9.35
2017-10-26T02:49:07.261Z,9.35
2017-10-26T02:50:07.383Z,9.39
2017-10-26T02:51:07.352Z,9.38
2017-10-26T02:52:07.403Z,9.32
2017-10-26T02:53:07.442Z,9.34
2017-10-26T02:54:07.486Z,9.30
2017-10-26T02:55:07.615Z,9.34
2017-10-26T02:56:07.582Z,9.32
2017-10-26T02:57:07.627Z,9.35
2017-10-26T02:58:07.673Z,9.32
2017-10-26T02:59:07.721Z,9.32
2017-10-26T03:00:07.827Z,9.39
2017-10-26T03:01:07.876Z,9.34
2017-10-26T03:02:07.858Z,9.38
2017-10-26T03:03:07.903Z,9.32
2017-10-26T03:04:07.952Z,9.27
2017-10-26T03:05:08.000Z,9.34
2017-10-26T03:06:08.101Z,9.30
2017-10-26T03:07:08.085Z,9.25
2017-10-26T03:08:08.131Z,9.24
2017-10-26T03:09:08.178Z,9.25
2017-10-26T03:10:08.223Z,9.20
2017-10-26T03:11:08.331Z,9.21
2017-10-26T03:12:08.316Z,9.21
2017-10-26T03:13:08.363Z,9.24
2017-10-26T03:14:08.407Z,9.16
2017-10-26T03:15:08.453Z,9.13
2017-10-26T03:16:08.561Z,9.16
2017-10-26T03:17:08.547Z,9.16
2017-10-26T03:18:08.605Z,9.23
2017-10-26T03:19:08.640Z,9.16
2017-10-26T03:20:08.684Z,9.20
2017-10-26T03:21:08.791Z,9.15
2017-10-26T03:22:08.774Z,9.23
2017-10-26T03:23:08.822Z,9.13
2017-10-26T03:24:08.868Z,9.15
2017-10-26T03:25:08.912Z,9.15
2017-10-26T03:26:09.030Z,9.16
2017-10-26T03:27:09.003Z,9.06
2017-10-26T03:28:09.050Z,9.09
2017-10-26T03:29:09.105Z,9.09
2017-10-26T03:30:09.143Z,9.01
2017-10-26T03:31:09.257Z,8.96
2017-10-26T03:32:09.295Z,9.01
2017-10-26T03:33:09.280Z,8.93
2017-10-26T03:34:09.329Z,8.93
2017-10-26T03:35:09.371Z,8.88
2017-10-26T03:36:09.418Z,8.96
2017-10-26T03:37:09.526Z,8.87
2017-10-26T03:38:09.511Z,9.01
2017-10-26T03:39:09.555Z,8.91
2017-10-26T03:40:09.603Z,8.91
2017-10-26T03:41:09.646Z,8.93
2017-10-26T03:42:09.756Z,8.86
2017-10-26T03:43:09.738Z,8.90
2017-10-26T03:44:09.786Z,8.94
2017-10-26T03:45:09.839Z,8.97
2017-10-26T03:46:09.877Z,8.90
2017-10-26T03:47:09.987Z,8.93
2017-10-26T03:48:09.971Z,8.93
2017-10-26T03:49:10.015Z,8.93
2017-10-26T03:50:10.058Z,8.94
2017-10-26T03:51:10.105Z,8.94
2017-10-26T03:52:10.214Z,8.90
2017-10-26T03:53:10.259Z,8.90
2017-10-26T03:54:10.243Z,8.87
2017-10-26T03:55:10.292Z,8.87
2017-10-26T03:56:10.333Z,8.86
2017-10-26T03:57:10.382Z,8.94
2017-10-26T03:58:10.488Z,8.96
2017-10-26T03:59:10.471Z,8.91
2017-10-26T04:00:10.518Z,8.91
2017-10-26T04:01:10.564Z,8.81
2017-10-26T04:02:10.608Z,8.87
2017-10-26T04:03:10.716Z,8.83
2017-10-26T04:04:10.704Z,8.91
2017-10-26T04:05:10.747Z,8.83
2017-10-26T04:06:10.793Z,8.83
2017-10-26T04:07:10.836Z,8.76
2017-10-26T04:08:10.951Z,8.79
2017-10-26T04:09:10.930Z,8.88
2017-10-26T04:10:10.979Z,8.79
2017-10-26T04:11:11.021Z,8.79
2017-10-26T04:12:11.067Z,8.86
2017-10-26T04:13:11.180Z,8.88
2017-10-26T04:14:11.161Z,8.93
2017-10-26T04:15:11.204Z,8.93
2017-10-26T04:16:11.248Z,8.93
2017-10-26T04:17:11.293Z,8.91
2017-10-26T04:18:11.402Z,8.87
2017-10-26T04:19:11.450Z,8.90
2017-10-26T04:20:11.433Z,8.97
2017-10-26T04:21:11.476Z,8.93
2017-10-26T04:22:11.523Z,8.93
2017-10-26T04:23:11.575Z,8.86
2017-10-26T04:24:11.675Z,8.97
2017-10-26T04:25:11.667Z,8.93
2017-10-26T04:26:11.707Z,8.93
2017-10-26T04:27:11.755Z,8.90
2017-10-26T04:28:11.796Z,8.86
2017-10-26T04:29:11.907Z,8.88
2017-10-26T04:30:11.891Z,8.90
2017-10-26T04:31:11.936Z,8.86
2017-10-26T04:32:11.978Z,8.86
2017-10-26T04:33:12.026Z,8.84
2017-10-26T04:34:12.131Z,8.87
2017-10-26T04:35:12.118Z,8.84
2017-10-26T04:36:12.171Z,8.83
2017-10-26T04:37:12.213Z,8.84
2017-10-26T04:38:12.254Z,8.84
2017-10-26T04:39:12.365Z,8.75
2017-10-26T04:40:12.345Z,8.69
2017-10-26T04:41:12.392Z,8.73
2017-10-26T04:42:12.437Z,8.71
2017-10-26T04:43:12.486Z,8.65
2017-10-26T04:44:12.608Z,8.66
2017-10-26T04:45:12.574Z,8.71
2017-10-26T04:46:12.621Z,8.71
2017-10-26T04:47:12.664Z,8.71
2017-10-26T04:48:12.711Z,8.63
2017-10-26T04:49:12.822Z,8.63
2017-10-26T04:50:12.802Z,8.68
2017-10-26T04:51:12.849Z,8.66
2017-10-26T04:52:12.893Z,8.62
2017-10-26T04:53:12.940Z,8.65
2017-10-26T04:54:13.070Z,8.55
2017-10-26T04:55:13.031Z,8.65
2017-10-26T04:56:13.084Z,8.53
2017-10-26T04:57:13.123Z,8.55
2017-10-26T04:58:13.170Z,8.53
2017-10-26T04:59:13.294Z,8.51
2017-10-26T05:00:13.258Z,8.47
2017-10-26T05:01:13.305Z,8.44
2017-10-26T05:02:13.349Z,8.32
2017-10-26T05:03:13.395Z,8.32
2017-10-26T05:04:13.523Z,8.33
2017-10-26T05:05:13.486Z,8.36
2017-10-26T05:06:13.534Z,8.32
2017-10-26T05:07:13.580Z,8.29
2017-10-26T05:08:13.624Z,8.36
2017-10-26T05:09:13.732Z,8.36
2017-10-26T05:10:13.775Z,8.36
2017-10-26T05:11:13.759Z,8.37
2017-10-26T05:12:13.806Z,8.42
2017-10-26T05:13:13.852Z,8.36
2017-10-26T05:14:13.895Z,8.36
2017-10-26T05:15:14.006Z,8.39
2017-10-26T05:16:13.992Z,8.39
2017-10-26T05:17:14.033Z,8.33
2017-10-26T05:18:14.074Z,8.35
2017-10-26T05:19:14.124Z,8.45
2017-10-26T05:20:14.243Z,8.40
2017-10-26T05:21:14.217Z,8.35
2017-10-26T05:22:14.259Z,8.28
2017-10-26T05:23:14.309Z,8.26
2017-10-26T05:24:14.357Z,8.26
2017-10-26T05:25:14.479Z,8.30
2017-10-26T05:26:14.443Z,8.28
2017-10-26T05:27:14.489Z,8.26
2017-10-26T05:28:14.534Z,8.28
2017-10-26T05:29:14.580Z,8.29
2017-10-26T05:30:14.685Z,8.25
2017-10-26T05:31:14.733Z,8.17
2017-10-26T05:32:14.720Z,8.18
2017-10-26T05:33:14.762Z,8.18
2017-10-26T05:34:14.811Z,8.20
2017-10-26T05:35:14.853Z,8.20
2017-10-26T05:36:14.962Z,8.32
2017-10-26T05:37:14.949Z,8.29
2017-10-26T05:38:14.988Z,8.20
2017-10-26T05:39:15.034Z,8.25
2017-10-26T05:40:15.086Z,8.26
2017-10-26T05:41:15.186Z,8.20
2017-10-26T05:42:15.169Z,8.28
2017-10-26T05:43:15.216Z,8.25
2017-10-26T05:44:15.256Z,8.33
2017-10-26T05:45:15.306Z,8.28
2017-10-26T05:46:15.413Z,8.25
2017-10-26T05:47:15.397Z,8.26
2017-10-26T05:48:15.444Z,8.28
2017-10-26T05:49:15.487Z,8.25
2017-10-26T05:50:15.532Z,8.32
2017-10-26T05:51:15.644Z,8.29
2017-10-26T05:52:15.631Z,8.21
2017-10-26T05:53:15.669Z,8.17
2017-10-26T05:54:15.713Z,8.32
2017-10-26T05:55:15.761Z,8.28
2017-10-26T05:56:15.868Z,8.32
2017-10-26T05:57:15.851Z,8.20
2017-10-26T05:58:15.894Z,8.26
2017-10-26T05:59:15.949Z,8.14
2017-10-26T06:00:15.989Z,8.12
2017-10-26T06:01:16.097Z,8.10
2017-10-26T06:02:16.077Z,8.15
2017-10-26T06:03:16.126Z,8.20
2017-10-26T06:04:16.170Z,8.15
2017-10-26T06:05:16.214Z,8.28
2017-10-26T06:06:16.318Z,8.32
2017-10-26T06:07:16.304Z,8.15
2017-10-26T06:08:16.351Z,8.29
2017-10-26T06:09:16.395Z,8.21
2017-10-26T06:10:16.467Z,8.26
2017-10-26T06:11:16.563Z,8.25
2017-10-26T06:12:16.529Z,8.21
2017-10-26T06:13:16.580Z,8.26
2017-10-26T06:14:16.621Z,8.20
2017-10-26T06:15:16.670Z,8.18
2017-10-26T06:16:16.782Z,8.26
2017-10-26T06:17:16.822Z,8.30
2017-10-26T06:18:16.806Z,8.37
2017-10-26T06:19:16.849Z,8.30
2017-10-26T06:20:16.898Z,8.33
2017-10-26T06:21:16.946Z,8.37
2017-10-26T06:22:17.060Z,8.42
2017-10-26T06:23:17.036Z,8.50
2017-10-26T06:24:17.074Z,8.42
2017-10-26T06:25:17.121Z,8.48
2017-10-26T06:26:17.167Z,8.50
2017-10-26T06:27:17.291Z,8.51
2017-10-26T06:28:17.256Z,8.55
2017-10-26T06:29:17.302Z,8.65
2017-10-26T06:30:17.346Z,8.60
2017-10-26T06:31:17.407Z,8.65
2017-10-26T06:32:17.514Z,8.78
2017-10-26T06:33:17.484Z,8.73
2017-10-26T06:34:17.532Z,8.81
2017-10-26T06:35:17.575Z,8.73
2017-10-26T06:36:17.622Z,8.86
2017-10-26T06:37:17.747Z,8.97
2017-10-26T06:38:17.712Z,8.93
2017-10-26T06:39:17.756Z,8.94
2017-10-26T06:40:17.803Z,9.01
2017-10-26T06:41:17.850Z,9.09
2017-10-26T06:42:17.979Z,9.16
2017-10-26T06:43:17.940Z,9.16
2017-10-26T06:44:17.985Z,9.31
2017-10-26T06:45:18.030Z,9.35
2017-10-26T06:46:18.078Z,9.32
2017-10-26T06:47:18.191Z,9.50
2017-10-26T06:48:18.169Z,9.61
2017-10-26T06:49:18.213Z,9.75
2017-10-26T06:50:18.259Z,9.85
2017-10-26T06:51:18.306Z,9.94
2017-10-26T06:52:18.413Z,10.17
2017-10-26T06:53:18.397Z,10.40
2017-10-26T06:54:18.443Z,10.32
2017-10-26T06:55:18.512Z,10.21
2017-10-26T06:56:18.536Z,10.24
2017-10-26T06:57:18.649Z,10.22
2017-10-26T06:58:18.625Z,10.25
2017-10-26T06:59:18.673Z,10.21
2017-10-26T07:00:18.718Z,10.28
2017-10-26T07:01:18.765Z,10.34
2017-10-26T07:02:18.873Z,10.40
2017-10-26T07:03:18.919Z,10.37
2017-10-26T07:04:18.902Z,10.51
2017-10-26T07:05:18.952Z,10.51
2017-10-26T07:06:18.998Z,10.62
2017-10-26T07:07:19.042Z,10.63
2017-10-26T07:08:19.158Z,10.66
2017-10-26T07:09:19.141Z,10.63
2017-10-26T07:10:19.179Z,10.78
2017-10-26T07:11:19.226Z,10.83
2017-10-26T07:12:19.278Z,10.94
2017-10-26T07:13:19.389Z,11.09
2017-10-26T07:14:19.364Z,11.34
2017-10-26T07:15:19.411Z,11.54
2017-10-26T07:16:19.458Z,11.93
2017-10-26T07:17:19.501Z,12.21
2017-10-26T07:18:19.611Z,12.27
2017-10-26T07:19:19.600Z,12.34
2017-10-26T07:20:19.644Z,12.26
2017-10-26T07:21:19.691Z,12.23
2017-10-26T07:22:19.737Z,12.42
2017-10-26T07:23:19.866Z,12.44
2017-10-26T07:24:19.831Z,12.51
2017-10-26T07:25:19.880Z,12.51
2017-10-26T07:26:19.924Z,12.49
2017-10-26T07:27:19.976Z,12.62
2017-10-26T07:28:20.080Z,12.66
2017-10-26T07:29:20.067Z,12.81
2017-10-26T07:30:20.121Z,12.97
2017-10-26T07:31:20.160Z,12.87
2017-10-26T07:32:20.210Z,12.64
2017-10-26T07:33:20.335Z,12.54
2017-10-26T07:34:20.306Z,12.27
2017-10-26T07:35:20.351Z,12.15
2017-10-26T07:36:20.405Z,12.13
2017-10-26T07:37:20.446Z,12.02
2017-10-26T07:38:20.567Z,12.02
2017-10-26T07:39:20.539Z,12.01
2017-10-26T07:40:20.589Z,12.05
2017-10-26T07:41:20.635Z,12.09
2017-10-26T07:42:20.684Z,12.26
2017-10-26T07:43:20.813Z,12.30
2017-10-26T07:44:20.780Z,12.38
2017-10-26T07:45:20.832Z,12.48
2017-10-26T07:46:20.876Z,12.57
2017-10-26T07:47:20.921Z,12.81
2017-10-26T07:48:21.032Z,12.93
2017-10-26T07:49:21.080Z,12.93
2017-10-26T07:50:21.063Z,13.06
2017-10-26T07:51:21.109Z,13.37
2017-10-26T07:52:21.159Z,13.52
2017-10-26T07:53:21.208Z,13.79
2017-10-26T07:54:21.313Z,13.83
2017-10-26T07:55:21.302Z,13.98
2017-10-26T07:56:21.352Z,14.01
2017-10-26T07:57:21.398Z,14.04
2017-10-26T07:58:21.447Z,13.91
2017-10-26T07:59:21.561Z,13.79
2017-10-26T08:00:21.543Z,13.83
2017-10-26T08:01:21.593Z,13.83
2017-10-26T08:02:21.637Z,13.67
2017-10-26T08:03:21.690Z,13.52
2017-10-26T08:04:21.804Z,13.52
2017-10-26T08:05:21.785Z,13.52
2017-10-26T08:06:21.831Z,13.76
2017-10-26T08:07:21.881Z,13.83
2017-10-26T08:08:21.936Z,13.81
2017-10-26T08:09:22.043Z,13.84
2017-10-26T08:10:22.026Z,13.99
2017-10-26T08:11:22.075Z,13.99
2017-10-26T08:12:22.125Z,13.95
2017-10-26T08:13:22.169Z,13.94
2017-10-26T08:14:22.285Z,13.87
2017-10-26T08:15:22.268Z,13.96
2017-10-26T08:16:22.316Z,14.21
2017-10-26T08:17:22.366Z,14.46
2017-10-26T08:18:22.420Z,14.57
2017-10-26T08:19:22.543Z,15.03
2017-10-26T08:20:22.512Z,15.38
2017-10-26T08:21:22.561Z,15.60
2017-10-26T08:22:22.607Z,15.67
2017-10-26T08:23:22.662Z,15.66
2017-10-26T08:24:22.770Z,15.84
2017-10-26T08:25:22.819Z,16.11
2017-10-26T08:26:22.806Z,16.16
2017-10-26T08:27:22.854Z,16.27
2017-10-26T08:28:22.906Z,16.42
2017-10-26T08:29:22.953Z,16.89
2017-10-26T08:30:23.064Z,16.99
2017-10-26T08:31:23.054Z,17.23
2017-10-26T08:32:23.103Z,17.07
2017-10-26T08:33:23.170Z,17.25
2017-10-26T08:34:23.205Z,17.36
2017-10-26T08:35:23.315Z,17.67
2017-10-26T08:36:23.303Z,17.76
2017-10-26T08:37:23.361Z,17.73
2017-10-26T08:38:23.405Z,17.57
2017-10-26T08:39:23.451Z,17.48
2017-10-26T08:40:23.570Z,17.44
2017-10-26T08:41:23.554Z,17.30
2017-10-26T08:42:23.609Z,17.41
2017-10-26T08:43:23.654Z,17.57
2017-10-26T08:44:23.709Z,17.63
2017-10-26T08:45:23.828Z,17.36
2017-10-26T08:46:23.808Z,17.36
2017-10-26T08:47:23.859Z,17.20
2017-10-26T08:48:23.908Z,16.90
2017-10-26T08:49:23.964Z,16.30
2017-10-26T08:50:24.079Z,16.31
2017-10-26T08:51:24.062Z,15.93
2017-10-26T08:52:24.117Z,15.41
2017-10-26T08:53:24.167Z,15.42
2017-10-26T08:54:24.215Z,15.11
2017-10-26T08:55:24.329Z,14.65
2017-10-26T08:56:24.317Z,14.27
2017-10-26T08:57:24.369Z,14.10
2017-10-26T08:58:24.419Z,14.16
2017-10-26T08:59:24.475Z,14.20
2017-10-26T09:00:24.599Z,14.17
2017-10-26T09:01:24.572Z,14.31
2017-10-26T09:02:24.624Z,14.31
2017-10-26T09:03:24.676Z,14.14
2017-10-26T09:04:24.725Z,13.89
2017-10-26T09:05:24.847Z,13.83
2017-10-26T09:06:24.820Z,14.07
2017-10-26T09:07:24.878Z,14.25
2017-10-26T09:08:24.920Z,14.21
2017-10-26T09:09:24.971Z,14.17
2017-10-26T09:10:25.082Z,13.83
2017-10-26T09:11:25.137Z,13.54
2017-10-26T09:12:25.122Z,13.21
2017-10-26T09:13:25.171Z,13.12
2017-10-26T09:14:25.223Z,13.18
2017-10-26T09:15:25.273Z,12.99
2017-10-26T09:16:25.391Z,13.22
2017-10-26T09:17:25.369Z,13.51
2017-10-26T09:18:25.418Z,13.47
2017-10-26T09:19:25.470Z,13.20
2017-10-26T09:20:25.517Z,13.54
2017-10-26T09:21:25.630Z,13.58
2017-10-26T09:22:25.638Z,13.51
2017-10-26T09:23:25.666Z,13.51
2017-10-26T09:24:25.716Z,13.69
2017-10-26T09:25:25.765Z,13.63
2017-10-26T09:26:25.876Z,13.84
2017-10-26T09:27:25.864Z,14.04
2017-10-26T09:28:25.913Z,14.16
2017-10-26T09:29:25.968Z,14.44
2017-10-26T09:30:26.013Z,14.64
2017-10-26T09:31:26.124Z,14.69
2017-10-26T09:32:26.111Z,14.50
2017-10-26T09:33:26.164Z,14.39
2017-10-26T09:34:26.219Z,14.65
2017-10-26T09:35:26.265Z,14.94
2017-10-26T09:36:26.373Z,14.90
2017-10-26T09:37:26.372Z,14.56
2017-10-26T09:38:26.413Z,14.17
2017-10-26T09:39:26.462Z,14.42
2017-10-26T09:40:26.515Z,14.54
2017-10-26T09:41:26.625Z,14.24
2017-10-26T09:42:26.613Z,14.17
2017-10-26T09:43:26.665Z,14.07
2017-10-26T09:44:26.715Z,14.16
2017-10-26T09:45:26.773Z,13.98
2017-10-26T09:46:26.877Z,13.79
2017-10-26T09:47:26.865Z,13.92
2017-10-26T09:48:26.917Z,14.01
2017-10-26T09:49:26.966Z,13.55
2017-10-26T09:50:27.016Z,13.41
2017-10-26T09:51:27.129Z,13.20
2017-10-26T09:52:27.117Z,12.92
2017-10-26T09:53:27.167Z,12.69
2017-10-26T09:54:27.219Z,12.60
2017-10-26T09:55:27.269Z,12.81
2017-10-26T09:56:27.384Z,12.49
2017-10-26T09:57:27.367Z,12.51
2017-10-26T09:58:27.415Z,12.51
2017-10-26T09:59:27.466Z,12.41
2017-10-26T10:00:27.515Z,12.34
2017-10-26T10:01:27.626Z,12.57
2017-10-26T10:02:27.615Z,12.78
2017-10-26T10:03:27.663Z,13.03
2017-10-26T10:04:27.710Z,13.20
2017-10-26T10:05:27.761Z,13.04
2017-10-26T10:06:27.872Z,13.07
2017-10-26T10:07:27.860Z,13.24
2017-10-26T10:08:27.907Z,13.11
2017-10-26T10:09:27.957Z,13.06
2017-10-26T10:10:28.006Z,13.12
2017-10-26T10:11:28.134Z,13.36
2017-10-26T10:12:28.104Z,13.20
2017-10-26T10:13:28.154Z,13.24
2017-10-26T10:14:28.200Z,13.22
2017-10-26T10:15:28.255Z,13.21
2017-10-26T10:16:28.378Z,13.17
2017-10-26T10:17:28.356Z,13.11
2017-10-26T10:18:28.400Z,13.27
2017-10-26T10:19:28.449Z,13.27
2017-10-26T10:20:28.498Z,13.22
2017-10-26T10:21:28.628Z,13.24
2017-10-26T10:22:28.592Z,13.27
2017-10-26T10:23:28.641Z,13.47
2017-10-26T10:24:28.691Z,13.88
2017-10-26T10:25:28.741Z,13.95
2017-10-26T10:26:28.850Z,13.99
2017-10-26T10:27:28.900Z,14.09
2017-10-26T10:28:28.888Z,14.42
2017-10-26T10:29:28.935Z,14.65
2017-10-26T10:30:28.987Z,14.75
2017-10-26T10:31:29.036Z,14.72
2017-10-26T10:32:29.157Z,14.62
2017-10-26T10:33:29.145Z,14.50
2017-10-26T10:34:29.184Z,14.74
2017-10-26T10:35:29.236Z,15.24
2017-10-26T10:36:29.286Z,15.66
2017-10-26T10:37:29.396Z,16.01
2017-10-26T10:38:29.387Z,16.35
2017-10-26T10:39:29.433Z,16.56
2017-10-26T10:40:29.486Z,16.44
2017-10-26T10:41:29.535Z,16.34
2017-10-26T10:42:29.650Z,16.48
2017-10-26T10:43:29.636Z,16.70
2017-10-26T10:44:29.688Z,17.03
2017-10-26T10:45:29.738Z,17.08
2017-10-26T10:46:29.805Z,17.13
2017-10-26T10:47:29.914Z,17.17
2017-10-26T10:48:29.891Z,17.25
2017-10-26T10:49:29.943Z,17.36
2017-10-26T10:50:29.997Z,17.76
2017-10-26T10:51:30.049Z,18.00
2017-10-26T10:52:30.180Z,17.97
2017-10-26T10:53:30.154Z,18.03
2017-10-26T10:54:30.209Z,18.04
2017-10-26T10:55:30.260Z,17.67
2017-10-26T10:56:30.306Z,17.25
2017-10-26T10:57:30.424Z,17.03
2017-10-26T10:58:30.477Z,16.86
2017-10-26T10:59:30.465Z,17.14
2017-10-26T11:00:30.520Z,17.14
2017-10-26T11:01:30.569Z,16.93
2017-10-26T11:02:30.625Z,16.85
2017-10-26T11:03:30.806Z,16.89
2017-10-26T11:04:30.728Z,16.99
2017-10-26T11:05:30.780Z,17.22
2017-10-26T11:06:30.835Z,17.33
2017-10-26T11:07:30.883Z,17.28
2017-10-26T11:08:31.002Z,17.22
2017-10-26T11:09:30.987Z,17.23
2017-10-26T11:10:31.042Z,17.20
2017-10-26T11:11:31.094Z,17.30
2017-10-26T11:12:31.147Z,17.40
2017-10-26T11:13:31.294Z,17.14
2017-10-26T11:14:31.250Z,17.11
2017-10-26T11:15:31.307Z,17.23
2017-10-26T11:16:31.357Z,17.22
2017-10-26T11:17:31.409Z,17.26
2017-10-26T11:18:31.524Z,17.35
2017-10-26T11:19:31.513Z,17.13
2017-10-26T11:20:31.571Z,17.18
2017-10-26T11:21:31.619Z,17.25
2017-10-26T11:22:31.669Z,17.53
2017-10-26T11:23:31.790Z,17.40
2017-10-26T11:24:31.778Z,17.53
2017-10-26T11:25:31.832Z,17.67
2017-10-26T11:26:31.882Z,17.71
2017-10-26T11:27:31.936Z,17.62
2017-10-26T11:28:32.053Z,17.63
2017-10-26T11:29:32.043Z,17.53
2017-10-26T11:30:32.095Z,17.55
2017-10-26T11:31:32.147Z,17.54
2017-10-26T11:32:32.205Z,17.73
2017-10-26T11:33:32.334Z,17.91
2017-10-26T11:34:32.306Z,17.79
2017-10-26T11:35:32.360Z,18.04
2017-10-26T11:36:32.415Z,17.89
2017-10-26T11:37:32.470Z,17.63
2017-10-26T11:38:32.589Z,17.69
2017-10-26T11:39:32.577Z,17.66
2017-10-26T11:40:32.626Z,17.48
2017-10-26T11:41:32.681Z,17.41
2017-10-26T11:42:32.733Z,17.25
2017-10-26T11:43:32.877Z,17.13
2017-10-26T11:44:32.845Z,17.43
2017-10-26T11:45:32.894Z,17.63
2017-10-26T11:46:32.946Z,17.69
2017-10-26T11:47:33.000Z,17.54
2017-10-26T11:48:33.138Z,17.64
2017-10-26T11:49:33.110Z,17.38
2017-10-26T11:50:33.165Z,17.70
2017-10-26T11:51:33.216Z,17.29
2017-10-26T11:52:33.268Z,17.44
2017-10-26T11:53:33.390Z,17.44
2017-10-26T11:54:33.436Z,17.40
2017-10-26T11:55:33.432Z,17.57
2017-10-26T11:56:33.485Z,17.74
2017-10-26T11:57:33.535Z,17.87
2017-10-26T11:58:33.589Z,17.85
2017-10-26T11:59:33.709Z,17.99
2017-10-26T12:00:33.698Z,17.85
2017-10-26T12:01:33.750Z,17.79
2017-10-26T12:02:33.804Z,17.71
2017-10-26T12:03:33.859Z,17.81
2017-10-26T12:04:33.974Z,17.89
2017-10-26T12:05:33.966Z,18.21
2017-10-26T12:06:34.020Z,17.85
2017-10-26T12:07:34.072Z,18.02
2017-10-26T12:08:34.127Z,18.00
2017-10-26T12:09:34.252Z,17.82
2017-10-26T12:10:34.234Z,17.76
2017-10-26T12:11:34.288Z,17.59
2017-10-26T12:12:34.342Z,17.30
2017-10-26T12:13:34.397Z,17.32
2017-10-26T12:14:34.532Z,17.46
2017-10-26T12:15:34.507Z,17.30
2017-10-26T12:16:34.559Z,17.43
2017-10-26T12:17:34.614Z,17.73
2017-10-26T12:18:34.669Z,17.94
2017-10-26T12:19:34.805Z,17.59
2017-10-26T12:20:34.775Z,17.62
2017-10-26T12:21:34.830Z,17.40
2017-10-26T12:22:34.884Z,17.46
2017-10-26T12:23:34.934Z,17.03
2017-10-26T12:24:35.051Z,16.95
2017-10-26T12:25:35.103Z,16.73
2017-10-26T12:26:35.095Z,16.48
2017-10-26T12:27:35.146Z,16.31
2017-10-26T12:28:35.201Z,16.31
2017-10-26T12:29:35.256Z,16.23
2017-10-26T12:30:35.366Z,16.01
2017-10-26T12:31:35.355Z,15.93
2017-10-26T12:32:35.412Z,15.79
2017-10-26T12:33:35.461Z,15.54
2017-10-26T12:34:35.513Z,15.54
2017-10-26T12:35:35.626Z,15.68
2017-10-26T12:36:35.612Z,15.57
2017-10-26T12:37:35.665Z,15.51
2017-10-26T12:38:35.711Z,15.56
2017-10-26T12:39:35.765Z,15.49
2017-10-26T12:40:35.897Z,15.51
2017-10-26T12:41:35.866Z,15.56
2017-10-26T12:42:35.915Z,15.60
2017-10-26T12:43:35.971Z,15.63
2017-10-26T12:44:36.017Z,15.74
2017-10-26T12:45:36.146Z,15.82
2017-10-26T12:46:36.114Z,15.81
2017-10-26T12:47:36.165Z,15.86
2017-10-26T12:48:36.217Z,15.93
2017-10-26T12:49:36.267Z,15.93
2017-10-26T12:50:36.406Z,15.96
2017-10-26T12:51:36.365Z,15.93
2017-10-26T12:52:36.415Z,15.85
2017-10-26T12:53:36.464Z,15.72
2017-10-26T12:54:36.516Z,15.67
2017-10-26T12:55:36.644Z,15.75
2017-10-26T12:56:36.614Z,15.85
2017-10-26T12:57:36.664Z,15.94
2017-10-26T12:58:36.719Z,16.06
2017-10-26T12:59:36.762Z,16.03
2017-10-26T13:00:36.884Z,16.06
2017-10-26T13:01:36.861Z,16.01
2017-10-26T13:02:36.911Z,16.06
2017-10-26T13:03:36.964Z,16.07
2017-10-26T13:04:37.010Z,16.00
2017-10-26T13:05:37.145Z,15.93